TimeMDT,TemperatureF,Dew PointF,Humidity,Sea Level PressureIn,VisibilityMPH,Wind Direction,Wind SpeedMPH,Gust SpeedMPH,PrecipitationIn,Events,Conditions,WindDirDegrees,DateUTC
12:53 AM,21.9,12.0,66,30.25,10.0,SSW,8.1,-,N/A,,Clear,210,2014-03-29 06:53:00
1:53 AM,21.9,10.9,63,30.25,10.0,SSW,8.1,-,N/A,,Clear,200,2014-03-29 07:53:00
2:53 AM,21.0,10.0,63,30.25,10.0,South,6.9,-,N/A,,Clear,190,2014-03-29 08:53:00
3:53 AM,21.0,10.0,63,30.21,10.0,SSW,8.1,-,N/A,,Clear,210,2014-03-29 09:53:00
4:53 AM,19.0,9.0,65,30.22,10.0,SW,6.9,-,N/A,,Clear,220,2014-03-29 10:53:00
5:53 AM,19.0,9.0,65,30.25,10.0,South,4.6,-,N/A,,Clear,190,2014-03-29 11:53:00
6:53 AM,21.0,9.0,60,30.24,10.0,SSW,8.1,-,N/A,,Clear,210,2014-03-29 12:53:00
7:53 AM,19.9,10.0,65,30.27,10.0,SSW,4.6,-,N/A,,Clear,200,2014-03-29 13:53:00
8:53 AM,27.0,12.9,56,30.22,10.0,Calm,Calm,-,N/A,,Clear,0,2014-03-29 14:53:00
9:53 AM,34.0,12.9,42,30.19,10.0,Calm,Calm,-,N/A,,Clear,0,2014-03-29 15:53:00
10:53 AM,37.9,14.0,38,30.16,10.0,Calm,Calm,-,N/A,,Clear,0,2014-03-29 16:53:00
11:53 AM,41.0,12.9,32,30.13,10.0,NW,5.8,-,N/A,,Clear,320,2014-03-29 17:53:00
12:53 PM,46.9,14.0,27,30.08,10.0,WNW,3.5,-,N/A,,Clear,290,2014-03-29 18:53:00
1:53 PM,48.0,15.1,27,30.06,10.0,North,6.9,-,N/A,,Clear,10,2014-03-29 19:53:00
2:53 PM,50.0,15.1,25,30.02,10.0,North,6.9,-,N/A,,Clear,10,2014-03-29 20:53:00
3:53 PM,48.9,16.0,27,30.03,10.0,East,8.1,-,N/A,,Clear,100,2014-03-29 21:53:00
4:53 PM,48.9,12.9,24,30.01,10.0,Calm,Calm,-,N/A,,Clear,0,2014-03-29 22:53:00
5:53 PM,48.9,15.1,26,30.00,10.0,NNE,5.8,-,N/A,,Clear,30,2014-03-29 23:53:00
6:53 PM,46.0,16.0,30,30.00,10.0,North,3.5,-,N/A,,Clear,360,2014-03-30 00:53:00
7:53 PM,41.0,21.9,47,30.04,10.0,SSW,8.1,-,N/A,,Clear,210,2014-03-30 01:53:00
8:53 PM,39.0,23.0,53,30.00,10.0,South,3.5,-,N/A,,Clear,180,2014-03-30 02:53:00
9:53 PM,39.0,21.9,50,29.96,10.0,South,5.8,-,N/A,,Clear,170,2014-03-30 03:53:00
10:53 PM,41.0,18.0,40,29.92,10.0,ESE,8.1,-,N/A,,Clear,110,2014-03-30 04:53:00
11:53 PM,36.0,21.0,55,29.92,10.0,NNE,4.6,-,N/A,,Clear,30,2014-03-30 05:53:00